sensor_id;sensor_type;location;lat;lon;timestamp;P1;durP1;ratioP1;P2;durP2;ratioP2
59846;SDS011;45728;48.788;2.302;2023-03-01T00:01:33;10.60;;;5.15;;
59846;SDS011;45728;48.788;2.302;2023-03-01T00:04:00;10.88;;;5.93;;
59846;SDS011;45728;48.788;2.302;2023-03-01T00:06:26;11.30;;;5.72;;
59846;SDS011;45728;48.788;2.302;2023-03-01T00:08:52;9.20;;;8.02;;
59846;SDS011;45728;48.788;2.302;2023-03-01T00:11:20;10.88;;;8.25;;
59846;SDS011;45728;48.788;2.302;2023-03-01T00:13:48;10.93;;;5.88;;
59846;SDS011;45728;48.788;2.302;2023-03-01T00:16:17;9.25;;;5.35;;
59846;SDS011;45728;48.788;2.302;2023-03-01T00:18:45;9.27;;;6.03;;
59846;SDS011;45728;48.788;2.302;2023-03-01T00:21:12;8.75;;;5.13;;
59846;SDS011;45728;48.788;2.302;2023-03-01T00:23:38;11.27;;;5.90;;
59846;SDS011;45728;48.788;2.302;2023-03-01T00:26:06;10.55;;;5.85;;
59846;SDS011;45728;48.788;2.302;2023-03-01T00:28:33;11.65;;;6.00;;
59846;SDS011;45728;48.788;2.302;2023-03-01T00:31:06;14.02;;;6.13;;
59846;SDS011;45728;48.788;2.302;2023-03-01T00:33:34;9.75;;;5.32;;
59846;SDS011;45728;48.788;2.302;2023-03-01T00:36:00;10.65;;;5.90;;
59846;SDS011;45728;48.788;2.302;2023-03-01T00:38:27;12.10;;;5.55;;
59846;SDS011;45728;48.788;2.302;2023-03-01T00:40:54;10.40;;;5.50;;
59846;SDS011;45728;48.788;2.302;2023-03-01T00:43:20;12.80;;;5.65;;
59846;SDS011;45728;48.788;2.302;2023-03-01T00:45:46;12.07;;;6.15;;
59846;SDS011;45728;48.788;2.302;2023-03-01T00:48:12;9.00;;;5.13;;
59846;SDS011;45728;48.788;2.302;2023-03-01T00:50:38;12.75;;;6.68;;
59846;SDS011;45728;48.788;2.302;2023-03-01T00:53:04;10.10;;;5.65;;
59846;SDS011;45728;48.788;2.302;2023-03-01T00:55:30;9.65;;;5.55;;
59846;SDS011;45728;48.788;2.302;2023-03-01T00:57:56;9.77;;;5.50;;
59846;SDS011;45728;48.788;2.302;2023-03-01T01:00:22;9.90;;;5.55;;
59846;SDS011;45728;48.788;2.302;2023-03-01T01:02:48;10.43;;;5.65;;
59846;SDS011;45728;48.788;2.302;2023-03-01T01:05:15;10.98;;;5.00;;
59846;SDS011;45728;48.788;2.302;2023-03-01T01:07:47;10.38;;;6.28;;
59846;SDS011;45728;48.788;2.302;2023-03-01T01:10:13;11.10;;;5.47;;
59846;SDS011;45728;48.788;2.302;2023-03-01T01:12:43;10.80;;;5.95;;
59846;SDS011;45728;48.788;2.302;2023-03-01T01:15:10;10.68;;;5.68;;
59846;SDS011;45728;48.788;2.302;2023-03-01T01:17:39;9.35;;;5.70;;
59846;SDS011;45728;48.788;2.302;2023-03-01T01:20:06;11.40;;;5.30;;
59846;SDS011;45728;48.788;2.302;2023-03-01T01:22:32;10.68;;;5.75;;
59846;SDS011;45728;48.788;2.302;2023-03-01T01:24:58;11.88;;;6.15;;
59846;SDS011;45728;48.788;2.302;2023-03-01T01:27:25;11.20;;;6.63;;
59846;SDS011;45728;48.788;2.302;2023-03-01T01:29:52;11.40;;;5.68;;
59846;SDS011;45728;48.788;2.302;2023-03-01T01:32:18;10.00;;;5.53;;
59846;SDS011;45728;48.788;2.302;2023-03-01T01:34:44;10.70;;;6.38;;
59846;SDS011;45728;48.788;2.302;2023-03-01T01:37:12;12.48;;;6.88;;
59846;SDS011;45728;48.788;2.302;2023-03-01T01:39:38;11.50;;;5.97;;
59846;SDS011;45728;48.788;2.302;2023-03-01T01:42:04;10.15;;;5.15;;
59846;SDS011;45728;48.788;2.302;2023-03-01T01:44:30;10.48;;;6.18;;
59846;SDS011;45728;48.788;2.302;2023-03-01T01:47:00;11.27;;;6.22;;
59846;SDS011;45728;48.788;2.302;2023-03-01T01:49:37;10.13;;;6.05;;
59846;SDS011;45728;48.788;2.302;2023-03-01T01:52:13;12.77;;;6.85;;
59846;SDS011;45728;48.788;2.302;2023-03-01T01:54:50;10.90;;;5.72;;
59846;SDS011;45728;48.788;2.302;2023-03-01T01:57:58;10.63;;;6.68;;
59846;SDS011;45728;48.788;2.302;2023-03-01T02:00:28;10.60;;;5.68;;
59846;SDS011;45728;48.788;2.302;2023-03-01T02:02:56;11.82;;;6.15;;
59846;SDS011;45728;48.788;2.302;2023-03-01T02:07:52;13.35;;;5.78;;
59846;SDS011;45728;48.788;2.302;2023-03-01T02:10:19;11.63;;;6.10;;
59846;SDS011;45728;48.788;2.302;2023-03-01T02:12:46;10.43;;;9.30;;
59846;SDS011;45728;48.788;2.302;2023-03-01T02:15:13;14.10;;;5.95;;
59846;SDS011;45728;48.788;2.302;2023-03-01T02:17:39;11.32;;;5.95;;
59846;SDS011;45728;48.788;2.302;2023-03-01T02:22:40;13.82;;;5.80;;
59846;SDS011;45728;48.788;2.302;2023-03-01T02:30:20;10.15;;;5.50;;
59846;SDS011;45728;48.788;2.302;2023-03-01T02:32:48;9.77;;;5.55;;
59846;SDS011;45728;48.788;2.302;2023-03-01T02:35:16;8.90;;;5.18;;
59846;SDS011;45728;48.788;2.302;2023-03-01T02:37:44;11.75;;;6.47;;
59846;SDS011;45728;48.788;2.302;2023-03-01T02:40:13;8.60;;;4.97;;
59846;SDS011;45728;48.788;2.302;2023-03-01T02:42:47;15.68;;;6.13;;
59846;SDS011;45728;48.788;2.302;2023-03-01T02:45:17;11.68;;;6.10;;
59846;SDS011;45728;48.788;2.302;2023-03-01T02:47:43;10.80;;;5.97;;
59846;SDS011;45728;48.788;2.302;2023-03-01T02:50:19;11.60;;;10.23;;
59846;SDS011;45728;48.788;2.302;2023-03-01T02:53:01;11.75;;;6.25;;
59846;SDS011;45728;48.788;2.302;2023-03-01T02:55:30;15.95;;;6.68;;
59846;SDS011;45728;48.788;2.302;2023-03-01T02:57:56;11.82;;;5.80;;
59846;SDS011;45728;48.788;2.302;2023-03-01T03:00:23;10.70;;;6.32;;
59846;SDS011;45728;48.788;2.302;2023-03-01T03:02:54;10.98;;;6.32;;
59846;SDS011;45728;48.788;2.302;2023-03-01T03:05:24;12.73;;;7.05;;
59846;SDS011;45728;48.788;2.302;2023-03-01T03:07:54;11.63;;;5.85;;
59846;SDS011;45728;48.788;2.302;2023-03-01T03:10:21;13.93;;;6.75;;
59846;SDS011;45728;48.788;2.302;2023-03-01T03:12:59;11.02;;;6.30;;
59846;SDS011;45728;48.788;2.302;2023-03-01T03:15:28;11.95;;;6.10;;
59846;SDS011;45728;48.788;2.302;2023-03-01T03:17:55;11.93;;;6.38;;
59846;SDS011;45728;48.788;2.302;2023-03-01T03:20:23;13.23;;;6.78;;
59846;SDS011;45728;48.788;2.302;2023-03-01T03:22:52;12.77;;;5.80;;
59846;SDS011;45728;48.788;2.302;2023-03-01T03:25:20;12.75;;;7.15;;
59846;SDS011;45728;48.788;2.302;2023-03-01T03:27:47;12.23;;;10.55;;
59846;SDS011;45728;48.788;2.302;2023-03-01T03:30:16;14.60;;;6.38;;
59846;SDS011;45728;48.788;2.302;2023-03-01T03:32:44;14.80;;;5.95;;
59846;SDS011;45728;48.788;2.302;2023-03-01T03:35:25;12.65;;;6.82;;
59846;SDS011;45728;48.788;2.302;2023-03-01T03:37:55;12.07;;;6.53;;
59846;SDS011;45728;48.788;2.302;2023-03-01T03:43:00;12.43;;;6.85;;
59846;SDS011;45728;48.788;2.302;2023-03-01T03:45:26;10.85;;;5.75;;
59846;SDS011;45728;48.788;2.302;2023-03-01T03:47:53;13.98;;;7.32;;
59846;SDS011;45728;48.788;2.302;2023-03-01T03:50:19;14.50;;;7.15;;
59846;SDS011;45728;48.788;2.302;2023-03-01T03:52:45;14.25;;;7.03;;
59846;SDS011;45728;48.788;2.302;2023-03-01T03:55:11;10.57;;;5.80;;
59846;SDS011;45728;48.788;2.302;2023-03-01T03:57:38;12.68;;;6.80;;
59846;SDS011;45728;48.788;2.302;2023-03-01T04:00:06;13.50;;;6.75;;
59846;SDS011;45728;48.788;2.302;2023-03-01T04:02:39;15.05;;;7.78;;
59846;SDS011;45728;48.788;2.302;2023-03-01T04:05:06;11.95;;;5.95;;
59846;SDS011;45728;48.788;2.302;2023-03-01T04:07:34;10.52;;;5.93;;
59846;SDS011;45728;48.788;2.302;2023-03-01T04:10:02;12.38;;;6.57;;
59846;SDS011;45728;48.788;2.302;2023-03-01T04:12:33;15.35;;;6.65;;
59846;SDS011;45728;48.788;2.302;2023-03-01T04:15:03;11.35;;;5.50;;
59846;SDS011;45728;48.788;2.302;2023-03-01T04:17:47;12.38;;;6.97;;
59846;SDS011;45728;48.788;2.302;2023-03-01T04:20:14;10.65;;;5.57;;
59846;SDS011;45728;48.788;2.302;2023-03-01T04:22:56;13.65;;;7.13;;
59846;SDS011;45728;48.788;2.302;2023-03-01T04:25:25;11.93;;;6.97;;
59846;SDS011;45728;48.788;2.302;2023-03-01T04:27:51;13.73;;;6.93;;
59846;SDS011;45728;48.788;2.302;2023-03-01T04:30:18;14.50;;;8.05;;
59846;SDS011;45728;48.788;2.302;2023-03-01T04:32:44;11.65;;;7.35;;
59846;SDS011;45728;48.788;2.302;2023-03-01T04:35:10;15.68;;;7.28;;
59846;SDS011;45728;48.788;2.302;2023-03-01T04:37:36;12.85;;;7.35;;
59846;SDS011;45728;48.788;2.302;2023-03-01T04:40:02;14.23;;;7.85;;
59846;SDS011;45728;48.788;2.302;2023-03-01T04:42:41;16.25;;;7.32;;
59846;SDS011;45728;48.788;2.302;2023-03-01T04:45:07;13.75;;;7.15;;
59846;SDS011;45728;48.788;2.302;2023-03-01T04:47:39;11.98;;;7.15;;
59846;SDS011;45728;48.788;2.302;2023-03-01T04:50:06;10.35;;;6.53;;
59846;SDS011;45728;48.788;2.302;2023-03-01T04:52:33;10.05;;;5.80;;
59846;SDS011;45728;48.788;2.302;2023-03-01T04:54:59;12.00;;;7.55;;
59846;SDS011;45728;48.788;2.302;2023-03-01T04:57:25;15.35;;;7.50;;
59846;SDS011;45728;48.788;2.302;2023-03-01T04:59:51;13.50;;;7.47;;
59846;SDS011;45728;48.788;2.302;2023-03-01T05:02:17;14.02;;;7.05;;
59846;SDS011;45728;48.788;2.302;2023-03-01T05:04:44;12.38;;;6.72;;
59846;SDS011;45728;48.788;2.302;2023-03-01T05:07:10;15.00;;;6.90;;
59846;SDS011;45728;48.788;2.302;2023-03-01T05:09:38;12.63;;;6.72;;
59846;SDS011;45728;48.788;2.302;2023-03-01T05:12:04;13.90;;;7.85;;
59846;SDS011;45728;48.788;2.302;2023-03-01T05:14:30;15.75;;;7.00;;
59846;SDS011;45728;48.788;2.302;2023-03-01T05:16:56;15.30;;;7.72;;
59846;SDS011;45728;48.788;2.302;2023-03-01T05:19:29;12.95;;;8.30;;
59846;SDS011;45728;48.788;2.302;2023-03-01T05:21:57;10.57;;;6.05;;
59846;SDS011;45728;48.788;2.302;2023-03-01T05:24:34;13.45;;;6.93;;
59846;SDS011;45728;48.788;2.302;2023-03-01T05:27:01;12.25;;;6.40;;
59846;SDS011;45728;48.788;2.302;2023-03-01T05:29:28;13.68;;;7.32;;
59846;SDS011;45728;48.788;2.302;2023-03-01T05:31:57;13.63;;;7.50;;
59846;SDS011;45728;48.788;2.302;2023-03-01T05:34:25;14.65;;;7.70;;
59846;SDS011;45728;48.788;2.302;2023-03-01T05:36:52;16.15;;;8.00;;
59846;SDS011;45728;48.788;2.302;2023-03-01T05:39:19;10.77;;;7.30;;
59846;SDS011;45728;48.788;2.302;2023-03-01T05:41:47;13.98;;;7.93;;
59846;SDS011;45728;48.788;2.302;2023-03-01T05:44:13;20.05;;;8.13;;
59846;SDS011;45728;48.788;2.302;2023-03-01T05:46:39;15.05;;;7.82;;
59846;SDS011;45728;48.788;2.302;2023-03-01T05:49:05;15.77;;;7.80;;
59846;SDS011;45728;48.788;2.302;2023-03-01T05:51:31;12.85;;;7.07;;
59846;SDS011;45728;48.788;2.302;2023-03-01T05:53:59;16.35;;;8.00;;
59846;SDS011;45728;48.788;2.302;2023-03-01T05:56:25;14.13;;;8.05;;
59846;SDS011;45728;48.788;2.302;2023-03-01T05:58:51;14.07;;;7.10;;
59846;SDS011;45728;48.788;2.302;2023-03-01T06:01:17;14.07;;;7.68;;
59846;SDS011;45728;48.788;2.302;2023-03-01T06:03:43;15.20;;;8.02;;
59846;SDS011;45728;48.788;2.302;2023-03-01T06:06:09;11.60;;;7.18;;
59846;SDS011;45728;48.788;2.302;2023-03-01T06:08:35;13.82;;;7.13;;
59846;SDS011;45728;48.788;2.302;2023-03-01T06:11:01;14.10;;;7.93;;
59846;SDS011;45728;48.788;2.302;2023-03-01T06:13:27;17.05;;;8.80;;
59846;SDS011;45728;48.788;2.302;2023-03-01T06:15:54;15.65;;;7.72;;
59846;SDS011;45728;48.788;2.302;2023-03-01T06:18:20;17.67;;;7.43;;
59846;SDS011;45728;48.788;2.302;2023-03-01T06:20:51;11.90;;;6.85;;
59846;SDS011;45728;48.788;2.302;2023-03-01T06:23:19;13.35;;;6.43;;
59846;SDS011;45728;48.788;2.302;2023-03-01T06:25:45;16.05;;;8.18;;
59846;SDS011;45728;48.788;2.302;2023-03-01T06:28:11;14.57;;;7.18;;
59846;SDS011;45728;48.788;2.302;2023-03-01T06:30:37;17.08;;;8.57;;
59846;SDS011;45728;48.788;2.302;2023-03-01T06:33:03;16.63;;;8.45;;
59846;SDS011;45728;48.788;2.302;2023-03-01T06:35:29;17.48;;;9.30;;
59846;SDS011;45728;48.788;2.302;2023-03-01T06:37:56;16.80;;;8.05;;
59846;SDS011;45728;48.788;2.302;2023-03-01T06:40:24;17.58;;;9.20;;
59846;SDS011;45728;48.788;2.302;2023-03-01T06:42:51;16.42;;;8.90;;
59846;SDS011;45728;48.788;2.302;2023-03-01T06:45:18;21.60;;;10.10;;
59846;SDS011;45728;48.788;2.302;2023-03-01T06:47:44;16.83;;;8.20;;
59846;SDS011;45728;48.788;2.302;2023-03-01T06:50:11;17.83;;;9.13;;
59846;SDS011;45728;48.788;2.302;2023-03-01T06:52:38;21.02;;;9.70;;
59846;SDS011;45728;48.788;2.302;2023-03-01T06:55:04;18.75;;;9.75;;
59846;SDS011;45728;48.788;2.302;2023-03-01T06:57:31;21.45;;;17.63;;
59846;SDS011;45728;48.788;2.302;2023-03-01T06:59:57;16.45;;;9.50;;
59846;SDS011;45728;48.788;2.302;2023-03-01T07:02:24;22.83;;;10.13;;
59846;SDS011;45728;48.788;2.302;2023-03-01T07:04:50;16.30;;;10.02;;
59846;SDS011;45728;48.788;2.302;2023-03-01T07:07:17;24.35;;;10.93;;
59846;SDS011;45728;48.788;2.302;2023-03-01T07:09:46;17.73;;;8.95;;
59846;SDS011;45728;48.788;2.302;2023-03-01T07:12:13;17.40;;;9.35;;
59846;SDS011;45728;48.788;2.302;2023-03-01T07:14:40;17.50;;;9.70;;
59846;SDS011;45728;48.788;2.302;2023-03-01T07:17:06;20.40;;;10.57;;
59846;SDS011;45728;48.788;2.302;2023-03-01T07:19:32;17.80;;;9.18;;
59846;SDS011;45728;48.788;2.302;2023-03-01T07:21:58;19.33;;;9.32;;
59846;SDS011;45728;48.788;2.302;2023-03-01T07:24:24;19.02;;;9.10;;
59846;SDS011;45728;48.788;2.302;2023-03-01T07:26:51;21.02;;;7.85;;
59846;SDS011;45728;48.788;2.302;2023-03-01T07:29:18;25.52;;;11.00;;
59846;SDS011;45728;48.788;2.302;2023-03-01T07:31:44;24.10;;;11.40;;
59846;SDS011;45728;48.788;2.302;2023-03-01T07:34:11;19.92;;;10.27;;
59846;SDS011;45728;48.788;2.302;2023-03-01T07:36:37;20.45;;;10.63;;
59846;SDS011;45728;48.788;2.302;2023-03-01T07:39:04;24.58;;;11.88;;
59846;SDS011;45728;48.788;2.302;2023-03-01T07:41:31;22.33;;;11.07;;
59846;SDS011;45728;48.788;2.302;2023-03-01T07:43:57;18.65;;;10.38;;
59846;SDS011;45728;48.788;2.302;2023-03-01T07:46:23;21.98;;;10.10;;
59846;SDS011;45728;48.788;2.302;2023-03-01T07:48:49;22.58;;;11.13;;
59846;SDS011;45728;48.788;2.302;2023-03-01T07:51:15;21.25;;;11.50;;
59846;SDS011;45728;48.788;2.302;2023-03-01T07:53:41;20.63;;;11.18;;
59846;SDS011;45728;48.788;2.302;2023-03-01T07:56:08;23.33;;;10.95;;
59846;SDS011;45728;48.788;2.302;2023-03-01T07:58:37;22.80;;;11.23;;
59846;SDS011;45728;48.788;2.302;2023-03-01T08:01:06;26.50;;;11.98;;
59846;SDS011;45728;48.788;2.302;2023-03-01T08:03:34;21.95;;;11.65;;
59846;SDS011;45728;48.788;2.302;2023-03-01T08:06:01;20.48;;;11.32;;
59846;SDS011;45728;48.788;2.302;2023-03-01T08:08:28;17.55;;;9.48;;
59846;SDS011;45728;48.788;2.302;2023-03-01T08:10:57;19.33;;;11.40;;
59846;SDS011;45728;48.788;2.302;2023-03-01T08:13:25;24.23;;;12.45;;
59846;SDS011;45728;48.788;2.302;2023-03-01T08:15:52;20.70;;;11.48;;
59846;SDS011;45728;48.788;2.302;2023-03-01T08:18:18;24.70;;;12.50;;
59846;SDS011;45728;48.788;2.302;2023-03-01T08:20:46;16.63;;;9.30;;
59846;SDS011;45728;48.788;2.302;2023-03-01T08:23:13;16.95;;;10.10;;
59846;SDS011;45728;48.788;2.302;2023-03-01T08:25:39;21.55;;;11.20;;
59846;SDS011;45728;48.788;2.302;2023-03-01T08:28:05;19.63;;;11.25;;
59846;SDS011;45728;48.788;2.302;2023-03-01T08:30:31;22.42;;;11.80;;
59846;SDS011;45728;48.788;2.302;2023-03-01T08:32:57;17.60;;;10.23;;
59846;SDS011;45728;48.788;2.302;2023-03-01T08:35:23;23.73;;;11.23;;
59846;SDS011;45728;48.788;2.302;2023-03-01T08:37:49;22.10;;;11.68;;
59846;SDS011;45728;48.788;2.302;2023-03-01T08:40:15;19.38;;;10.90;;
59846;SDS011;45728;48.788;2.302;2023-03-01T08:42:42;27.73;;;12.52;;
59846;SDS011;45728;48.788;2.302;2023-03-01T08:45:08;24.92;;;11.95;;
59846;SDS011;45728;48.788;2.302;2023-03-01T08:47:35;22.25;;;13.30;;
59846;SDS011;45728;48.788;2.302;2023-03-01T08:50:02;25.92;;;19.98;;
59846;SDS011;45728;48.788;2.302;2023-03-01T08:52:29;20.45;;;11.10;;
59846;SDS011;45728;48.788;2.302;2023-03-01T08:54:55;25.42;;;11.27;;
59846;SDS011;45728;48.788;2.302;2023-03-01T08:57:22;22.88;;;11.77;;
59846;SDS011;45728;48.788;2.302;2023-03-01T08:59:48;24.75;;;20.35;;
59846;SDS011;45728;48.788;2.302;2023-03-01T09:02:15;23.35;;;11.23;;
59846;SDS011;45728;48.788;2.302;2023-03-01T09:04:43;23.35;;;11.82;;
59846;SDS011;45728;48.788;2.302;2023-03-01T09:07:10;23.20;;;12.25;;
59846;SDS011;45728;48.788;2.302;2023-03-01T09:09:36;23.85;;;12.10;;
59846;SDS011;45728;48.788;2.302;2023-03-01T09:12:03;23.98;;;12.50;;
59846;SDS011;45728;48.788;2.302;2023-03-01T09:14:29;21.45;;;11.15;;
59846;SDS011;45728;48.788;2.302;2023-03-01T09:16:56;27.27;;;12.05;;
59846;SDS011;45728;48.788;2.302;2023-03-01T09:19:23;21.35;;;11.10;;
59846;SDS011;45728;48.788;2.302;2023-03-01T09:21:49;19.67;;;11.63;;
59846;SDS011;45728;48.788;2.302;2023-03-01T09:24:19;18.98;;;9.93;;
59846;SDS011;45728;48.788;2.302;2023-03-01T09:26:46;17.13;;;9.50;;
59846;SDS011;45728;48.788;2.302;2023-03-01T09:29:13;19.33;;;9.18;;
59846;SDS011;45728;48.788;2.302;2023-03-01T09:31:39;20.73;;;10.35;;
59846;SDS011;45728;48.788;2.302;2023-03-01T09:34:06;23.05;;;18.77;;
59846;SDS011;45728;48.788;2.302;2023-03-01T09:36:33;17.90;;;10.25;;
59846;SDS011;45728;48.788;2.302;2023-03-01T09:39:00;17.73;;;11.43;;
59846;SDS011;45728;48.788;2.302;2023-03-01T09:44:32;20.40;;;12.98;;
59846;SDS011;45728;48.788;2.302;2023-03-01T09:47:32;20.45;;;9.50;;
59846;SDS011;45728;48.788;2.302;2023-03-01T09:55:15;20.02;;;17.90;;
59846;SDS011;45728;48.788;2.302;2023-03-01T09:57:53;19.67;;;17.00;;
59846;SDS011;45728;48.788;2.302;2023-03-01T10:00:50;24.60;;;16.65;;
59846;SDS011;45728;48.788;2.302;2023-03-01T10:03:17;21.70;;;17.65;;
59846;SDS011;45728;48.788;2.302;2023-03-01T10:09:02;21.70;;;10.70;;
59846;SDS011;45728;48.788;2.302;2023-03-01T10:11:43;19.90;;;17.30;;
59846;SDS011;45728;48.788;2.302;2023-03-01T10:14:48;22.05;;;17.45;;
59846;SDS011;45728;48.788;2.302;2023-03-01T10:19:55;20.50;;;17.80;;
59846;SDS011;45728;48.788;2.302;2023-03-01T10:22:35;20.00;;;17.70;;
59846;SDS011;45728;48.788;2.302;2023-03-01T10:25:02;23.42;;;12.20;;
59846;SDS011;45728;48.788;2.302;2023-03-01T10:27:31;20.58;;;18.38;;
59846;SDS011;45728;48.788;2.302;2023-03-01T10:32:46;21.40;;;10.50;;
59846;SDS011;45728;48.788;2.302;2023-03-01T10:38:03;20.17;;;18.05;;
59846;SDS011;45728;48.788;2.302;2023-03-01T10:40:32;18.95;;;10.55;;
59846;SDS011;45728;48.788;2.302;2023-03-01T10:43:00;19.95;;;11.15;;
59846;SDS011;45728;48.788;2.302;2023-03-01T10:50:30;22.75;;;18.60;;
59846;SDS011;45728;48.788;2.302;2023-03-01T10:52:58;23.23;;;18.55;;
59846;SDS011;45728;48.788;2.302;2023-03-01T10:55:35;25.77;;;18.73;;
59846;SDS011;45728;48.788;2.302;2023-03-01T11:00:51;25.42;;;18.75;;
59846;SDS011;45728;48.788;2.302;2023-03-01T11:08:31;23.25;;;18.52;;
59846;SDS011;45728;48.788;2.302;2023-03-01T11:14:06;22.40;;;18.95;;
59846;SDS011;45728;48.788;2.302;2023-03-01T11:16:38;20.70;;;17.73;;
59846;SDS011;45728;48.788;2.302;2023-03-01T11:24:29;19.98;;;10.52;;
59846;SDS011;45728;48.788;2.302;2023-03-01T11:27:16;21.33;;;11.02;;
59846;SDS011;45728;48.788;2.302;2023-03-01T11:29:55;20.00;;;16.95;;
59846;SDS011;45728;48.788;2.302;2023-03-01T11:32:36;23.50;;;17.52;;
59846;SDS011;45728;48.788;2.302;2023-03-01T11:35:10;22.30;;;11.15;;
59846;SDS011;45728;48.788;2.302;2023-03-01T11:40:32;22.48;;;17.42;;
59846;SDS011;45728;48.788;2.302;2023-03-01T11:43:23;22.40;;;18.70;;
59846;SDS011;45728;48.788;2.302;2023-03-01T12:00:23;20.67;;;17.70;;
59846;SDS011;45728;48.788;2.302;2023-03-01T12:11:23;20.58;;;16.67;;
59846;SDS011;45728;48.788;2.302;2023-03-01T12:22:30;19.52;;;16.63;;
59846;SDS011;45728;48.788;2.302;2023-03-01T12:25:12;17.98;;;16.05;;
59846;SDS011;45728;48.788;2.302;2023-03-01T12:28:04;19.95;;;17.30;;
59846;SDS011;45728;48.788;2.302;2023-03-01T12:30:51;22.85;;;17.63;;
59846;SDS011;45728;48.788;2.302;2023-03-01T12:42:20;19.98;;;17.45;;
59846;SDS011;45728;48.788;2.302;2023-03-01T12:44:47;20.10;;;17.90;;
59846;SDS011;45728;48.788;2.302;2023-03-01T12:52:46;22.58;;;18.50;;
59846;SDS011;45728;48.788;2.302;2023-03-01T12:58:12;19.63;;;17.52;;
59846;SDS011;45728;48.788;2.302;2023-03-01T13:01:22;19.92;;;17.65;;
59846;SDS011;45728;48.788;2.302;2023-03-01T13:04:25;19.83;;;17.50;;
59846;SDS011;45728;48.788;2.302;2023-03-01T13:09:42;22.07;;;18.03;;
59846;SDS011;45728;48.788;2.302;2023-03-01T13:17:49;22.13;;;18.52;;
59846;SDS011;45728;48.788;2.302;2023-03-01T13:20:19;24.58;;;17.20;;
59846;SDS011;45728;48.788;2.302;2023-03-01T13:23:36;21.52;;;18.05;;
59846;SDS011;45728;48.788;2.302;2023-03-01T13:31:11;19.27;;;17.10;;
59846;SDS011;45728;48.788;2.302;2023-03-01T13:33:58;23.23;;;18.30;;
59846;SDS011;45728;48.788;2.302;2023-03-01T13:38:55;21.48;;;17.55;;
59846;SDS011;45728;48.788;2.302;2023-03-01T13:44:20;21.30;;;18.98;;
59846;SDS011;45728;48.788;2.302;2023-03-01T13:47:26;21.27;;;17.42;;
59846;SDS011;45728;48.788;2.302;2023-03-01T13:52:22;22.75;;;18.20;;
59846;SDS011;45728;48.788;2.302;2023-03-01T13:55:14;19.65;;;17.55;;
59846;SDS011;45728;48.788;2.302;2023-03-01T13:57:57;18.80;;;16.67;;
59846;SDS011;45728;48.788;2.302;2023-03-01T14:00:26;22.37;;;17.10;;
59846;SDS011;45728;48.788;2.302;2023-03-01T14:05:41;20.45;;;16.92;;
59846;SDS011;45728;48.788;2.302;2023-03-01T14:08:23;20.02;;;16.90;;
59846;SDS011;45728;48.788;2.302;2023-03-01T14:16:07;21.77;;;18.10;;
59846;SDS011;45728;48.788;2.302;2023-03-01T14:18:43;20.58;;;17.63;;
59846;SDS011;45728;48.788;2.302;2023-03-01T14:21:13;21.60;;;17.42;;
59846;SDS011;45728;48.788;2.302;2023-03-01T14:23:41;20.70;;;18.50;;
59846;SDS011;45728;48.788;2.302;2023-03-01T14:26:07;21.77;;;17.83;;
59846;SDS011;45728;48.788;2.302;2023-03-01T14:28:35;21.33;;;18.38;;
59846;SDS011;45728;48.788;2.302;2023-03-01T14:31:29;21.00;;;17.13;;
59846;SDS011;45728;48.788;2.302;2023-03-01T14:34:03;20.95;;;18.33;;
59846;SDS011;45728;48.788;2.302;2023-03-01T14:36:31;20.15;;;17.23;;
59846;SDS011;45728;48.788;2.302;2023-03-01T14:38:59;20.00;;;17.77;;
59846;SDS011;45728;48.788;2.302;2023-03-01T14:41:31;19.90;;;17.80;;
59846;SDS011;45728;48.788;2.302;2023-03-01T14:44:02;21.08;;;18.27;;
59846;SDS011;45728;48.788;2.302;2023-03-01T14:46:33;20.40;;;17.83;;
59846;SDS011;45728;48.788;2.302;2023-03-01T14:49:03;19.20;;;15.82;;
59846;SDS011;45728;48.788;2.302;2023-03-01T14:51:42;20.60;;;17.40;;
59846;SDS011;45728;48.788;2.302;2023-03-01T14:57:20;20.65;;;17.65;;
59846;SDS011;45728;48.788;2.302;2023-03-01T14:59:52;25.67;;;19.42;;
59846;SDS011;45728;48.788;2.302;2023-03-01T15:02:21;23.90;;;18.30;;
59846;SDS011;45728;48.788;2.302;2023-03-01T15:04:51;20.85;;;17.85;;
59846;SDS011;45728;48.788;2.302;2023-03-01T15:07:19;21.67;;;18.20;;
59846;SDS011;45728;48.788;2.302;2023-03-01T15:09:55;20.45;;;17.95;;
59846;SDS011;45728;48.788;2.302;2023-03-01T15:12:40;23.67;;;20.33;;
59846;SDS011;45728;48.788;2.302;2023-03-01T15:15:19;24.58;;;19.65;;
59846;SDS011;45728;48.788;2.302;2023-03-01T15:17:52;24.45;;;20.48;;
59846;SDS011;45728;48.788;2.302;2023-03-01T15:20:20;23.70;;;19.98;;
59846;SDS011;45728;48.788;2.302;2023-03-01T15:22:51;24.73;;;20.50;;
59846;SDS011;45728;48.788;2.302;2023-03-01T15:25:19;23.27;;;19.23;;
59846;SDS011;45728;48.788;2.302;2023-03-01T15:27:52;25.55;;;20.48;;
59846;SDS011;45728;48.788;2.302;2023-03-01T15:30:21;30.20;;;20.00;;
59846;SDS011;45728;48.788;2.302;2023-03-01T15:35:49;22.90;;;20.23;;
59846;SDS011;45728;48.788;2.302;2023-03-01T15:41:24;21.67;;;18.75;;
59846;SDS011;45728;48.788;2.302;2023-03-01T15:43:57;24.87;;;20.13;;
59846;SDS011;45728;48.788;2.302;2023-03-01T15:46:25;24.58;;;19.98;;
59846;SDS011;45728;48.788;2.302;2023-03-01T15:49:01;23.38;;;19.80;;
59846;SDS011;45728;48.788;2.302;2023-03-01T15:51:45;25.40;;;20.33;;
59846;SDS011;45728;48.788;2.302;2023-03-01T15:54:15;27.85;;;19.13;;
59846;SDS011;45728;48.788;2.302;2023-03-01T15:56:46;23.95;;;19.38;;
59846;SDS011;45728;48.788;2.302;2023-03-01T15:59:12;22.70;;;20.25;;
59846;SDS011;45728;48.788;2.302;2023-03-01T16:01:40;22.50;;;18.15;;
59846;SDS011;45728;48.788;2.302;2023-03-01T16:04:06;21.00;;;18.75;;
59846;SDS011;45728;48.788;2.302;2023-03-01T16:06:34;23.13;;;18.17;;
59846;SDS011;45728;48.788;2.302;2023-03-01T16:09:01;22.05;;;18.38;;
59846;SDS011;45728;48.788;2.302;2023-03-01T16:11:28;22.95;;;19.30;;
59846;SDS011;45728;48.788;2.302;2023-03-01T16:13:54;22.40;;;17.90;;
59846;SDS011;45728;48.788;2.302;2023-03-01T16:16:20;20.38;;;17.92;;
59846;SDS011;45728;48.788;2.302;2023-03-01T16:18:47;21.27;;;17.98;;
59846;SDS011;45728;48.788;2.302;2023-03-01T16:21:14;22.30;;;18.42;;
59846;SDS011;45728;48.788;2.302;2023-03-01T16:23:50;24.63;;;18.50;;
59846;SDS011;45728;48.788;2.302;2023-03-01T16:26:17;19.67;;;17.58;;
59846;SDS011;45728;48.788;2.302;2023-03-01T16:28:44;18.77;;;11.50;;
59846;SDS011;45728;48.788;2.302;2023-03-01T16:31:11;20.27;;;17.60;;
59846;SDS011;45728;48.788;2.302;2023-03-01T16:33:42;21.23;;;18.35;;
59846;SDS011;45728;48.788;2.302;2023-03-01T16:36:11;21.05;;;17.65;;
59846;SDS011;45728;48.788;2.302;2023-03-01T16:38:38;20.95;;;17.80;;
59846;SDS011;45728;48.788;2.302;2023-03-01T16:41:04;20.80;;;17.27;;
59846;SDS011;45728;48.788;2.302;2023-03-01T16:43:30;21.90;;;18.42;;
59846;SDS011;45728;48.788;2.302;2023-03-01T16:45:57;21.02;;;17.63;;
59846;SDS011;45728;48.788;2.302;2023-03-01T16:48:24;18.88;;;16.33;;
59846;SDS011;45728;48.788;2.302;2023-03-01T16:51:00;18.52;;;16.02;;
59846;SDS011;45728;48.788;2.302;2023-03-01T16:53:27;19.33;;;16.92;;
59846;SDS011;45728;48.788;2.302;2023-03-01T16:55:57;22.20;;;17.50;;
59846;SDS011;45728;48.788;2.302;2023-03-01T16:58:23;21.00;;;16.25;;
59846;SDS011;45728;48.788;2.302;2023-03-01T17:00:53;23.25;;;17.48;;
59846;SDS011;45728;48.788;2.302;2023-03-01T17:03:20;19.60;;;16.73;;
59846;SDS011;45728;48.788;2.302;2023-03-01T17:05:47;20.65;;;16.45;;
59846;SDS011;45728;48.788;2.302;2023-03-01T17:08:14;17.95;;;15.95;;